createdAt,value
2018-02-19T08:13:39.643Z,83.70
2018-02-19T08:16:09.715Z,82.90
2018-02-19T08:18:39.211Z,83.20
2018-02-19T08:21:09.349Z,81.90
2018-02-19T08:23:38.842Z,82.20
2018-02-19T08:26:08.869Z,81.80
2018-02-19T08:28:38.681Z,81.00
2018-02-19T08:31:09.289Z,81.40
2018-02-19T08:33:39.299Z,80.60
2018-02-19T08:36:09.243Z,79.90
2018-02-19T08:38:45.349Z,80.60
2018-02-19T08:41:23.841Z,80.60
2018-02-19T08:43:54.351Z,80.80
2018-02-19T08:46:23.963Z,80.90
2018-02-19T08:48:54.867Z,80.30
2018-02-19T08:51:25.481Z,78.90
2018-02-19T08:53:55.134Z,79.00
2018-02-19T08:56:24.768Z,78.60
2018-02-19T08:58:56.268Z,78.50
2018-02-19T09:01:25.856Z,78.50
2018-02-19T09:03:56.359Z,77.90
2018-02-19T09:06:32.009Z,77.90
2018-02-19T09:09:23.836Z,78.00
2018-02-19T09:11:55.834Z,77.20
2018-02-19T09:14:26.041Z,77.70
2018-02-19T09:16:55.819Z,77.70
2018-02-19T09:19:25.372Z,76.80
2018-02-19T09:21:56.114Z,75.00
2018-02-19T09:24:26.913Z,74.10
2018-02-19T09:26:57.077Z,73.90
2018-02-19T09:29:30.871Z,72.70
2018-02-19T09:32:01.210Z,72.80
2018-02-19T09:34:30.677Z,72.90
2018-02-19T09:37:14.284Z,71.50
2018-02-19T09:39:44.766Z,70.90
2018-02-19T09:42:14.737Z,70.90
2018-02-19T09:44:44.448Z,70.20
2018-02-19T09:47:14.145Z,70.90
2018-02-19T09:49:44.795Z,70.90
2018-02-19T09:52:14.367Z,70.90
2018-02-19T09:54:43.873Z,70.40
2018-02-19T09:57:13.456Z,69.70
2018-02-19T09:59:42.959Z,68.00
2018-02-19T10:02:13.648Z,67.10
2018-02-19T10:04:43.907Z,67.00
2018-02-19T10:07:14.359Z,67.70
2018-02-19T10:09:45.029Z,67.60
2018-02-19T10:12:15.371Z,67.20
2018-02-19T10:14:46.586Z,64.90
2018-02-19T10:17:16.325Z,64.90
2018-02-19T10:19:45.962Z,64.70
2018-02-19T10:22:15.476Z,63.90
2018-02-19T10:24:44.901Z,63.90
2018-02-19T10:27:15.135Z,60.40
2018-02-19T10:29:44.882Z,60.70
2018-02-19T10:32:14.694Z,61.60
2018-02-19T10:34:45.132Z,62.50
2018-02-19T10:37:15.018Z,62.50
2018-02-19T10:39:45.658Z,61.60
2018-02-19T10:42:15.844Z,61.60
2018-02-19T10:44:45.368Z,60.00
2018-02-19T10:47:17.221Z,58.60
2018-02-19T10:49:47.425Z,59.10
2018-02-19T10:52:17.011Z,59.20
2018-02-19T10:54:46.922Z,57.90
2018-02-19T10:57:16.831Z,59.10
2018-02-19T10:59:47.608Z,59.30
2018-02-19T11:02:28.736Z,57.80
2018-02-19T11:04:59.339Z,57.90
2018-02-19T11:07:32.661Z,57.10
2018-02-19T11:10:02.620Z,56.00
2018-02-19T11:12:33.876Z,55.60
2018-02-19T11:15:06.307Z,56.00
2018-02-19T11:17:36.750Z,55.20
2018-02-19T11:20:06.886Z,55.20
2018-02-19T11:22:36.668Z,54.40
2018-02-19T11:25:05.770Z,54.60
2018-02-19T11:27:35.588Z,55.10
2018-02-19T11:30:05.484Z,55.10
2018-02-19T11:32:35.237Z,54.50
2018-02-19T11:35:05.004Z,52.80
2018-02-19T11:37:35.126Z,51.80
2018-02-19T11:40:10.795Z,51.70
2018-02-19T11:42:41.340Z,51.80
2018-02-19T11:45:20.226Z,53.40
2018-02-19T11:48:01.290Z,54.00
2018-02-19T11:50:31.335Z,54.50
2018-02-19T11:53:01.479Z,55.10
2018-02-19T11:55:31.704Z,55.20
2018-02-19T11:58:01.900Z,54.70
2018-02-19T12:00:31.840Z,54.50
2018-02-19T12:03:01.924Z,52.60
2018-02-19T12:05:31.842Z,51.30
2018-02-19T12:08:02.362Z,47.70
2018-02-19T12:10:32.879Z,43.60
2018-02-19T12:13:03.101Z,43.60
2018-02-19T12:15:33.975Z,43.70
2018-02-19T12:18:11.452Z,45.30
2018-02-19T12:20:50.097Z,46.30
2018-02-19T12:23:21.944Z,47.30
2018-02-19T12:25:54.300Z,47.20
2018-02-19T12:28:26.302Z,46.40
2018-02-19T12:30:56.378Z,46.70
2018-02-19T12:33:26.620Z,48.00
2018-02-19T12:35:56.555Z,47.30
2018-02-19T12:38:26.784Z,46.50
2018-02-19T12:40:58.727Z,46.20
2018-02-19T12:43:34.254Z,45.60
2018-02-19T12:46:08.641Z,46.00
2018-02-19T12:48:45.934Z,47.80
2018-02-19T12:51:20.572Z,49.20
2018-02-19T12:53:52.060Z,49.80
2018-02-19T12:56:26.592Z,51.20
2018-02-19T12:58:58.657Z,50.30
2018-02-19T13:01:31.853Z,50.20
2018-02-19T13:04:02.614Z,48.40
2018-02-19T13:06:33.188Z,48.40
2018-02-19T13:09:02.838Z,47.50
2018-02-19T13:11:33.483Z,47.80
2018-02-19T13:14:05.207Z,49.00
2018-02-19T13:16:36.974Z,48.20
2018-02-19T13:19:07.251Z,48.10
2018-02-19T13:21:37.605Z,46.90
2018-02-19T13:24:14.909Z,46.40
2018-02-19T13:26:49.380Z,45.90
2018-02-19T13:29:22.691Z,45.60
2018-02-19T13:32:05.233Z,45.60
2018-02-19T13:34:36.492Z,45.90
2018-02-19T13:37:08.200Z,45.00
2018-02-19T13:39:39.956Z,44.80
2018-02-19T13:42:10.986Z,41.80
2018-02-19T13:44:43.708Z,41.80
2018-02-19T13:47:13.384Z,41.50
2018-02-19T13:49:43.107Z,41.50
2018-02-19T13:52:13.209Z,42.60
2018-02-19T13:54:45.821Z,41.30
2018-02-19T13:57:16.939Z,41.60
2018-02-19T13:59:59.896Z,45.00
2018-02-19T14:02:33.976Z,47.30
2018-02-19T14:05:04.534Z,48.80
2018-02-19T14:07:35.105Z,50.40
2018-02-19T14:10:16.210Z,50.30
2018-02-19T14:12:48.602Z,49.80
2018-02-19T14:15:18.666Z,50.00
2018-02-19T14:17:48.573Z,50.10
2018-02-19T14:20:18.520Z,50.60
2018-02-19T14:22:48.420Z,51.50
2018-02-19T14:25:21.519Z,50.90
2018-02-19T14:27:53.214Z,50.60
2018-02-19T14:30:24.422Z,50.50
2018-02-19T14:32:55.113Z,50.50
2018-02-19T14:35:25.205Z,50.30
2018-02-19T14:37:55.356Z,51.20
2018-02-19T14:40:25.464Z,51.80
2018-02-19T14:42:55.294Z,51.60
2018-02-19T14:45:26.050Z,53.30
2018-02-19T14:47:56.180Z,53.30
2018-02-19T14:50:26.604Z,54.00
2018-02-19T14:52:57.188Z,54.10
2018-02-19T14:55:27.210Z,53.70
2018-02-19T14:57:57.466Z,52.70
2018-02-19T15:00:28.173Z,53.10
2018-02-19T15:02:58.660Z,52.30
2018-02-19T15:05:29.241Z,52.60
2018-02-19T15:07:59.238Z,52.60
2018-02-19T15:10:36.785Z,52.90
2018-02-19T15:13:20.076Z,52.70
2018-02-19T15:15:57.660Z,53.30
2018-02-19T15:18:36.116Z,53.30
2018-02-19T15:21:06.786Z,53.50
2018-02-19T15:23:36.515Z,53.80
2018-02-19T15:26:09.300Z,53.60
2018-02-19T15:28:43.833Z,53.60
2018-02-19T15:31:14.647Z,54.10
2018-02-19T15:33:52.907Z,54.30
2018-02-19T15:36:23.068Z,55.00
2018-02-19T15:39:02.765Z,55.50
2018-02-19T15:41:34.120Z,54.70
2018-02-19T15:44:08.639Z,54.70
2018-02-19T15:46:39.189Z,54.70
2018-02-19T15:49:09.211Z,54.90
2018-02-19T15:51:39.300Z,55.10
2018-02-19T15:54:09.199Z,55.00
2018-02-19T15:56:40.372Z,54.70
2018-02-19T15:59:12.799Z,54.70
2018-02-19T16:01:42.986Z,54.20
2018-02-19T16:04:13.062Z,55.00
2018-02-19T16:06:49.404Z,54.90
2018-02-19T16:09:20.000Z,55.50
2018-02-19T16:11:50.708Z,55.70
2018-02-19T16:14:21.206Z,56.00
2018-02-19T16:16:55.139Z,55.80
2018-02-19T16:20:31.486Z,56.20
2018-02-19T16:23:03.085Z,56.00
2018-02-19T16:25:36.440Z,55.00
2018-02-19T16:28:11.586Z,55.30
2018-02-19T16:30:48.711Z,56.00
2018-02-19T16:33:20.813Z,56.00
2018-02-19T16:35:52.359Z,56.80
2018-02-19T16:38:26.272Z,56.70
2018-02-19T16:41:05.041Z,56.80
2018-02-19T16:43:36.314Z,57.90
2018-02-19T16:46:16.773Z,57.90
2018-02-19T16:48:49.254Z,57.30
2018-02-19T16:51:19.886Z,57.30
2018-02-19T16:53:49.844Z,57.40
2018-02-19T16:56:19.725Z,56.50
2018-02-19T16:58:50.668Z,56.20
2018-02-19T17:01:30.614Z,56.50
2018-02-19T17:04:02.184Z,56.70
2018-02-19T17:06:37.331Z,56.90
2018-02-19T17:09:12.388Z,56.40
2018-02-19T17:11:42.312Z,56.50
2018-02-19T17:14:12.395Z,57.20
2018-02-19T17:16:43.239Z,58.50
2018-02-19T17:19:13.150Z,58.50
2018-02-19T17:21:44.739Z,59.90
2018-02-19T17:24:15.735Z,60.50
2018-02-19T17:26:45.546Z,60.80
2018-02-19T17:29:15.569Z,60.70
2018-02-19T17:31:45.691Z,60.90
2018-02-19T17:34:16.376Z,61.20
2018-02-19T17:36:55.541Z,61.90
2018-02-19T17:39:31.743Z,62.50
2018-02-19T17:42:01.822Z,61.90
2018-02-19T17:44:32.205Z,61.70
2018-02-19T17:47:05.047Z,62.10
2018-02-19T17:49:34.890Z,62.10
2018-02-19T17:52:36.468Z,62.40
2018-02-19T17:55:07.534Z,62.70
2018-02-19T17:57:37.364Z,62.60
2018-02-19T18:00:10.561Z,62.80
2018-02-19T18:02:41.059Z,62.00
2018-02-19T18:05:11.811Z,62.40
2018-02-19T18:07:48.344Z,62.40
2018-02-19T18:10:18.896Z,62.10
2018-02-19T18:12:48.992Z,62.20
2018-02-19T18:15:19.116Z,62.30
2018-02-19T18:17:50.336Z,62.40
2018-02-19T18:20:22.741Z,62.60
2018-02-19T18:22:52.816Z,62.40
2018-02-19T18:25:23.598Z,62.60
2018-02-19T18:27:54.052Z,62.20
2018-02-19T18:33:46.598Z,62.40
2018-02-19T18:36:17.713Z,63.10
2018-02-19T18:38:50.902Z,63.20
2018-02-19T18:41:21.453Z,62.60
2018-02-19T18:43:57.428Z,63.10
2018-02-19T18:46:29.449Z,63.00
2018-02-19T18:48:59.988Z,63.10
2018-02-19T18:51:38.987Z,63.10
2018-02-19T18:54:10.197Z,63.30
2018-02-19T18:56:44.008Z,63.10
2018-02-19T18:59:16.090Z,63.40
2018-02-19T19:02:04.246Z,63.40
2018-02-19T19:04:48.614Z,63.70
2018-02-19T19:07:34.306Z,63.70
2018-02-19T19:10:47.196Z,63.50
2018-02-19T19:13:19.284Z,63.50
2018-02-19T19:16:13.432Z,63.50
2018-02-19T19:18:44.268Z,63.80
2018-02-19T19:21:16.857Z,64.00
2018-02-19T19:23:46.824Z,64.30
2018-02-19T19:26:17.596Z,65.20
2018-02-19T19:28:47.860Z,65.10
2018-02-19T19:31:18.363Z,65.50
2018-02-19T19:33:48.001Z,65.40
2018-02-19T19:36:19.997Z,65.50
2018-02-19T19:38:59.584Z,65.40
2018-02-19T19:41:41.013Z,64.90
2018-02-19T19:44:12.062Z,65.10
2018-02-19T19:46:42.045Z,65.40
2018-02-19T19:49:14.322Z,65.50
2018-02-19T19:52:11.418Z,66.00
2018-02-19T19:54:52.606Z,66.00
2018-02-19T19:57:24.638Z,65.80
2018-02-19T19:59:58.088Z,65.80
2018-02-19T20:02:29.374Z,66.30
2018-02-19T20:05:00.227Z,66.80
2018-02-19T20:07:31.267Z,66.70
2018-02-19T20:10:01.982Z,66.60
2018-02-19T20:12:32.261Z,66.80
2018-02-19T20:15:03.641Z,66.90
2018-02-19T20:17:43.724Z,66.40
2018-02-19T20:20:13.976Z,66.80
2018-02-19T20:22:57.917Z,67.20
2018-02-19T20:25:30.370Z,67.10
2018-02-19T20:28:00.340Z,66.60
2018-02-19T20:30:35.454Z,67.00
2018-02-19T20:33:05.283Z,66.50
2018-02-19T20:35:34.923Z,66.40
2018-02-19T20:38:05.679Z,66.50
2018-02-19T20:40:37.816Z,66.50
2018-02-19T20:43:08.034Z,66.70
2018-02-19T20:45:41.591Z,66.60
2018-02-19T20:48:11.685Z,66.30
2018-02-19T20:50:46.818Z,66.70
2018-02-19T20:53:17.713Z,67.40
2018-02-19T20:55:49.224Z,67.40
2018-02-19T20:58:19.191Z,67.60
2018-02-19T21:00:50.219Z,67.70
2018-02-19T21:03:20.777Z,68.60
2018-02-19T21:05:50.434Z,67.90
2018-02-19T21:08:28.785Z,67.60
2018-02-19T21:11:08.495Z,67.40
2018-02-19T21:13:41.797Z,67.70
2018-02-19T21:16:12.554Z,67.40
2018-02-19T21:18:43.956Z,68.00
2018-02-19T21:21:20.884Z,68.40
2018-02-19T21:23:53.602Z,68.60
2018-02-19T21:26:23.206Z,68.60
2018-02-19T21:28:52.694Z,68.70
2018-02-19T21:31:24.646Z,69.20
2018-02-19T21:33:54.147Z,69.20
2018-02-19T21:36:23.769Z,69.20
2018-02-19T21:38:55.254Z,69.20
2018-02-19T21:41:24.952Z,69.20
2018-02-19T21:44:02.573Z,69.50
2018-02-19T21:46:40.261Z,69.50
2018-02-19T21:49:21.580Z,69.50
2018-02-19T21:52:01.647Z,69.80
2018-02-19T21:54:33.151Z,70.50
2018-02-19T21:57:03.047Z,70.60
2018-02-19T21:59:34.700Z,70.70
2018-02-19T22:02:05.228Z,71.70
2018-02-19T22:04:36.688Z,71.80
2018-02-19T22:07:14.489Z,71.90
2018-02-19T22:10:02.713Z,71.90
2018-02-19T22:12:43.332Z,72.00
2018-02-19T22:15:20.964Z,72.20
2018-02-19T22:17:52.477Z,72.40
2018-02-19T22:20:23.877Z,72.70
2018-02-19T22:22:54.806Z,72.60
2018-02-19T22:25:24.791Z,72.70
2018-02-19T22:27:56.084Z,72.80
2018-02-19T22:30:28.155Z,72.90
2018-02-19T22:33:04.432Z,73.30
2018-02-19T22:35:35.157Z,73.70
2018-02-19T22:38:05.319Z,73.70
2018-02-19T22:40:35.133Z,74.20
2018-02-19T22:43:05.144Z,74.50
2018-02-19T22:45:35.091Z,74.80
2018-02-19T22:48:04.781Z,75.00
2018-02-19T22:50:34.316Z,75.10
2018-02-19T22:53:05.932Z,75.20
2018-02-19T22:55:35.867Z,75.20
2018-02-19T22:58:05.648Z,75.70
2018-02-19T23:00:35.167Z,75.90
2018-02-19T23:03:07.449Z,76.10
2018-02-19T23:05:41.280Z,76.20
2018-02-19T23:08:12.105Z,76.10
2018-02-19T23:10:42.960Z,76.40
2018-02-19T23:13:15.531Z,77.00
2018-02-19T23:15:46.637Z,77.00
2018-02-19T23:18:17.126Z,77.50
2018-02-19T23:20:46.969Z,77.60
2018-02-19T23:23:17.390Z,77.80
2018-02-19T23:25:46.951Z,77.90
2018-02-19T23:28:16.583Z,77.90
2018-02-19T23:30:46.229Z,78.30
2018-02-19T23:33:17.416Z,79.00
2018-02-19T23:35:51.451Z,78.90
2018-02-19T23:38:21.732Z,79.30
2018-02-19T23:40:51.413Z,79.40
2018-02-19T23:43:21.182Z,79.80
2018-02-19T23:45:50.750Z,80.00
2018-02-19T23:48:21.061Z,80.80
2018-02-19T23:50:50.672Z,80.80
2018-02-19T23:53:24.208Z,81.00
2018-02-19T23:55:55.181Z,81.10
2018-02-19T23:58:25.033Z,81.10
